Στοιχεία αεροπορικών μετεωρολογικών δεδομένων METAR     LIEE Cagliari Elmas Airport
θερμοκρασία
8°C θερμοκρασία
4°C Σημείο δρόσου
76% Υγρασία



Ανεμος
10 KM/H
6 MPH
3 M/S
5 KTS



10°
Vóreios
Τρέχουσες συνθήκες

Σαφή Σαφή
πίεση 1023.92 (hPa) - 30.24 (inHg)
Ορατότητα 6.2 (μίλι) - 10 (km)
Aεροδρόμιο
Κωδικός αεροδρομίου LIEE

Τοποθεσία: Cagliari Elmas Airport
Απόσταση: 14 (km)

Metar:
LIEE 301850Z 01005KT CAVOK 08/04 Q1024

ώρα: 30-11-2021 19:50 CET